Flight Track Log - Related Links

Times and Time Zones

All times are in EDT time to prevent confusion due to time zone crossing. See the N682RW flight status page for this flight to view local times or setup timezone preferences in your user account.

Time Position Orientation Groundspeed Altitude Reporting Facility
EDT Latitude Longitude Course Direction KTS MPH feet Rate Location/Type
Mon 12:30:57 AM 42.3500 -71.0000 77° East 182 209 800  Level KA90
Mon 12:32:03 AM 42.3667 -70.9000 77° East 274 315 4,600 3,441 Climbing KA90
Mon 12:33:13 AM 42.4136 -70.8092 55° Northeast 288 331 8,600 3,369 Climbing Boston Center
Mon 12:34:13 AM 42.4667 -70.7317 47° Northeast 288 331 11,900 2,700 Climbing Boston Center
Mon 12:35:13 AM 42.5547 -70.7631 345° North 265 305 14,000 2,850 Climbing Boston Center
Mon 12:36:13 AM 42.5881 -70.9061 288° West 267 307 17,600 2,950 Climbing Boston Center
Mon 12:37:13 AM 42.6000 -71.0325 277° West 338 389 19,900 2,164 Climbing Boston Center
Mon 12:38:15 AM 42.6103 -71.1792 275° West 375 432 22,000 2,182 Climbing Boston Center
Mon 12:39:14 AM 42.6200 -71.3283 275° West 392 451 24,300 2,118 Climbing Boston Center
Mon 12:40:14 AM 42.6339 -71.4833 277° West 411 473 26,200 2,067 Climbing Boston Center
Mon 12:41:13 AM 42.6414 -71.6442 274° West 425 489 28,400 2,269 Climbing Boston Center
Mon 12:42:13 AM 42.6528 -71.8022 276° West 425 489 30,700 2,150 Climbing Boston Center
Mon 12:43:13 AM 42.6642 -71.9600 276° West 425 489 32,700 1,650 Climbing Boston Center
Mon 12:44:13 AM 42.6731 -72.1153 275° West 420 483 34,000 650 Climbing Boston Center
Mon 12:45:13 AM 42.6858 -72.2903 276° West 420 483 34,000  Level Boston Center
Mon 12:46:13 AM 42.7025 -72.4372 279° West 425 489 34,000  Level Boston Center
Mon 12:47:13 AM 42.7128 -72.5983 275° West 425 489 34,000  Level Boston Center
Mon 12:48:13 AM 42.7189 -72.7764 273° West 425 489 34,000  Level Boston Center
Mon 12:49:13 AM 42.7264 -72.9403 274° West 425 489 34,000  Level Boston Center
Mon 12:50:13 AM 42.7403 -73.0903 277° West 443 510 34,000  Level Boston Center
Mon 12:51:13 AM 42.7475 -73.2544 273° West 443 510 34,000  Level Boston Center
Mon 12:52:13 AM 42.7567 -73.4183 274° West 443 510 34,000  Level Boston Center
Mon 12:53:13 AM 42.7656 -73.5797 274° West 443 510 34,000  Level Boston Center
Mon 12:54:15 AM 42.7700 -73.7581 272° West 443 510 34,000  Level Boston Center
Mon 12:55:13 AM 42.7783 -73.9194 274° West 438 504 34,000  Level Boston Center
Mon 12:56:13 AM 42.7886 -74.0811 275° West 438 504 34,000  Level Boston Center
Mon 12:57:13 AM 42.7967 -74.2397 274° West 438 504 34,000  Level Boston Center
Mon 12:58:15 AM 42.8044 -74.4014 274° West 438 504 34,000  Level Boston Center
Mon 12:59:13 AM 42.8119 -74.5628 274° West 433 498 34,000  Level Boston Center
Mon 01:00:13 AM 42.8214 -74.7244 275° West 433 498 34,000  Level Boston Center
Mon 01:01:13 AM 42.8264 -74.8861 272° West 433 498 34,000  Level Boston Center
Mon 01:02:15 AM 42.8333 -75.0478 273° West 433 498 34,000  Level Boston Center
Mon 01:03:16 AM 42.8397 -75.2094 273° West 433 498 34,000  Level Boston Center
Mon 01:04:13 AM 42.8461 -75.3711 273° West 428 493 34,000  Level Boston Center
Mon 01:05:14 AM 42.8544 -75.5303 274° West 428 493 34,000  Level Boston Center
Mon 01:06:13 AM 42.8583 -75.6947 272° West 428 493 34,000  Level Boston Center
Mon 01:07:13 AM 42.8661 -75.8539 274° West 423 487 34,000  Level Boston Center
Mon 01:08:13 AM 42.8714 -76.0156 273° West 423 487 34,000  Level Boston Center
Mon 01:09:13 AM 42.8769 -76.1747 273° West 423 487 34,000  Level Boston Center
Mon 01:11:04 AM 42.8856 -76.4650 272° West 424 488 34,000  Level Cleveland Center
Mon 01:12:04 AM 42.8900 -76.6264 272° West 425 489 34,000  Level Cleveland Center
Mon 01:13:04 AM 42.8928 -76.7692 272° West 424 488 34,000  Level Cleveland Center
Mon 01:14:04 AM 42.8978 -76.9311 272° West 429 494 34,000  Level Cleveland Center
Mon 01:15:04 AM 42.9019 -77.0911 272° West 427 491 34,000  Level Cleveland Center
Mon 01:16:05 AM 42.9056 -77.2506 272° West 425 489 34,000  Level Cleveland Center
Mon 01:17:05 AM 42.9089 -77.4100 272° West 426 490 34,000  Level Cleveland Center
Mon 01:18:05 AM 42.9128 -77.5981 272° West 420 483 34,000  Level Cleveland Center
Mon 01:19:05 AM 42.9153 -77.7569 271° West 425 489 34,000  Level Cleveland Center
Mon 01:20:05 AM 42.9189 -77.9192 272° West 432 497 34,000  Level Cleveland Center
Mon 01:21:05 AM 42.9211 -78.0803 271° West 429 494 34,000  Level Cleveland Center
Mon 01:22:05 AM 42.9239 -78.2417 271° West 430 495 34,000  Level Cleveland Center
Mon 01:23:05 AM 42.9256 -78.4042 271° West 429 494 34,000  Level Cleveland Center
Mon 01:24:05 AM 42.9281 -78.5658 271° West 429 494 34,000  Level Cleveland Center
Mon 01:25:05 AM 42.9181 -78.7236 265° West 422 486 34,000  Level Cleveland Center
Mon 01:26:05 AM 42.8953 -78.8797 259° West 418 481 34,000  Level Cleveland Center
Mon 01:27:05 AM 42.8736 -79.0347 259° West 418 481 34,000  Level Cleveland Center
Mon 01:28:05 AM 42.8500 -79.1897 258° West 419 482 34,000  Level Cleveland Center
Mon 01:29:06 AM 42.8272 -79.3444 259° West 417 480 34,000  Level Cleveland Center
Mon 01:30:06 AM 42.8036 -79.4994 258° West 418 481 34,000  Level Cleveland Center
Mon 01:31:06 AM 42.7803 -79.6542 258° West 418 481 34,000  Level Cleveland Center
Mon 01:32:06 AM 42.7561 -79.8081 258° West 418 481 34,000  Level Cleveland Center
Mon 01:33:06 AM 42.7450 -79.9650 265° West 418 481 34,000 -500 Level Cleveland Center
Mon 01:34:06 AM 42.7383 -80.1231 267° West 420 483 33,000 -1,050 Descending Cleveland Center
Mon 01:35:06 AM 42.7317 -80.2828 267° West 421 484 31,900 -1,100 Descending Cleveland Center
Mon 01:36:06 AM 42.7256 -80.4425 267° West 422 486 30,800 -1,100 Descending Cleveland Center
Mon 01:37:06 AM 42.7164 -80.6000 266° West 418 481 29,700 -1,100 Descending Cleveland Center
Mon 01:38:06 AM 42.6969 -80.7650 261° West 437 503 28,600 -1,091 Descending Cleveland Center
Mon 01:39:07 AM 42.6733 -80.9219 258° West 428 493 27,500 -1,091 Descending Cleveland Center
Mon 01:40:07 AM 42.6519 -81.0764 259° West 419 482 26,400 -1,100 Descending Cleveland Center
Mon 01:41:07 AM 42.6297 -81.2272 259° West 409 471 25,300 -1,150 Descending Cleveland Center
Mon 01:42:07 AM 42.6056 -81.3797 258° West 410 472 24,100 -1,150 Descending Cleveland Center
Mon 01:43:07 AM 42.5692 -81.5231 251° West 404 465 23,000 -1,100 Descending Cleveland Center
Mon 01:44:07 AM 42.5353 -81.6681 252° West 400 460 21,900 -1,100 Descending Cleveland Center
Mon 01:45:07 AM 42.5025 -81.8086 252° West 397 457 20,800 -1,500 Descending Cleveland Center
Mon 01:46:07 AM 42.4689 -81.9467 252° West 389 448 18,900 -1,587 Descending Cleveland Center
Mon 01:47:08 AM 42.4425 -82.0614 253° West 378 435 17,600 -1,781 Descending Cleveland Center
Mon 01:47:11 AM 42.4367 -82.0881 253° West 379 436 17,000 -5,333 Descending Cleveland Center
Mon 01:47:17 AM 42.4339 -82.0992 251° West 377 434 16,800 -2,316 Descending Cleveland Center
Mon 01:48:08 AM 42.4058 -82.2083 251° West 364 419 14,800 -2,361 Descending Cleveland Center
Mon 01:48:18 AM 42.4019 -82.2308 257° West 356 410 14,400 -2,300 Descending Cleveland Center
Mon 01:49:08 AM 42.3767 -82.3317 251° West 350 403 12,500 -2,200 Descending Cleveland Center
Mon 01:49:18 AM 42.3728 -82.3542 257° West 343 395 12,200 -500 Descending Cleveland Center
Mon 01:50:08 AM 42.3483 -82.4497 251° West 337 388 12,000 -197 Descending Cleveland Center
Mon 01:50:19 AM 42.3436 -82.4719 254° West 328 377 12,000 -100 Level Cleveland Center
Mon 01:51:08 AM 42.3169 -82.5644 249° West 328 377 11,900 -492 Descending Cleveland Center
Mon 01:51:20 AM 42.3083 -82.5858 241° Southwest 310 357 11,500 -1,200 Descending Cleveland Center
Mon 01:52:08 AM 42.2817 -82.6625 245° Southwest 294 338 10,700 -1,200 Descending Cleveland Center
Mon 01:52:20 AM 42.2761 -82.6831 250° West 277 319 10,300 -1,800 Descending Cleveland Center
Mon 01:53:08 AM 42.2492 -82.7558 243° Southwest 278 320 8,900 -1,672 Descending Cleveland Center
Mon 01:53:21 AM 42.2442 -82.7775 253° West 276 318 8,600 -1,500 Descending Cleveland Center
Mon 01:54:08 AM 42.2147 -82.8472 240° Southwest 275 316 7,400 -1,500 Descending Cleveland Center
Mon 01:54:21 AM 42.2083 -82.8686 248° West 271 312 7,100 -1,500 Descending Cleveland Center
Mon 01:55:08 AM 42.1828 -82.9356 243° Southwest 267 307 5,900 -1,574 Descending Cleveland Center
Mon 01:55:22 AM 42.1767 -82.9572 249° West 261 300 5,500 -900 Descending Cleveland Center
Mon 01:56:08 AM 42.1528 -83.0217 243° Southwest 259 298 5,000 -492 Descending Cleveland Center
Mon 01:56:23 AM 42.1469 -83.0433 250° West 242 278 5,000  Level Cleveland Center
Mon 01:57:09 AM 42.1258 -83.0992 243° Southwest 239 275 5,000  Level Cleveland Center
Mon 01:57:23 AM 42.1228 -83.1161 256° West 208 239 5,000 -400 Level Cleveland Center
Mon 01:58:09 AM 42.1017 -83.1706 242° Southwest 217 250 4,600 -689 Descending Cleveland Center
Mon 01:58:24 AM 42.0961 -83.1883 247° West 214 246 4,300 -1,100 Descending Cleveland Center
Mon 01:59:09 AM 42.0794 -83.2283 241° Southwest 214 246 3,500 -1,279 Descending Cleveland Center
Mon 01:59:25 AM 42.0675 -83.2633 245° Southwest 207 238 3,000 -500 Descending Cleveland Center
Mon 02:00:09 AM 42.0531 -83.2981 241° Southwest 211 243 3,000  Level Cleveland Center
Mon 02:00:25 AM 42.0600 -83.3325 285° West 193 222 3,000  Level Cleveland Center
Mon 02:01:09 AM 42.0692 -83.3647 291° West 187 215 3,000 -295 Level Cleveland Center
Mon 02:01:26 AM 42.0783 -83.3942 293° West 160 184 2,700 -500 Descending Cleveland Center
Mon 02:02:09 AM 42.0917 -83.4092 320° Northwest 157 181 2,500  Descending Cleveland Center
Mon 02:02:26 AM 42.1100 -83.4156 346° North 126 145 2,700 -200 Climbing Cleveland Center
Mon 02:03:09 AM 42.1236 -83.4031 34° Northeast 137 158 2,300 -689 Descending Cleveland Center
Mon 02:03:27 AM 42.1389 -83.3942 23° Northeast 114 131 2,000 -600 Descending Cleveland Center
Mon 02:04:09 AM 42.1514 -83.3825 35° Northeast 123 142 1,700 -590 Descending Cleveland Center
Mon 02:04:28 AM 42.1658 -83.3728 27° Northeast 113 130 1,400 -800 Descending Cleveland Center
Mon 02:05:09 AM 42.1844 -83.3581 30° Northeast 116 133 900 -700 Descending Cleveland Center
Mon 02:05:28 AM 42.1947 -83.3514 26° Northeast 123 142 700 -100 Descending Cleveland Center
Mon 02:06:09 AM 42.2122 -83.3369 31° Northeast 116 133 800 146 Climbing Cleveland Center

Login

Don't have an account? Register now (free) for customized features, flight alerts, and more!